sensor_id;sensor_type;location;lat;lon;timestamp;pressure;altitude;pressure_sealevel;temperature;humidity
64886;BME280;51514;52.206;5.114;2023-03-14T00:02:25;98876.34;;;11.56;76.54
64886;BME280;51514;52.206;5.114;2023-03-14T00:04:54;98880.94;;;11.56;76.54
64886;BME280;51514;52.206;5.114;2023-03-14T00:07:19;98875.28;;;11.57;76.74
64886;BME280;51514;52.206;5.114;2023-03-14T00:09:45;98868.03;;;11.58;76.94
64886;BME280;51514;52.206;5.114;2023-03-14T00:12:10;98864.94;;;11.54;77.02
64886;BME280;51514;52.206;5.114;2023-03-14T00:14:35;98858.50;;;11.55;77.26
64886;BME280;51514;52.206;5.114;2023-03-14T00:17:01;98857.22;;;11.58;77.19
64886;BME280;51514;52.206;5.114;2023-03-14T00:19:26;98871.78;;;11.57;77.23
64886;BME280;51514;52.206;5.114;2023-03-14T00:21:51;98868.03;;;11.58;77.59
64886;BME280;51514;52.206;5.114;2023-03-14T00:24:17;98865.31;;;11.58;77.55
64886;BME280;51514;52.206;5.114;2023-03-14T00:26:42;98863.44;;;11.58;77.70
64886;BME280;51514;52.206;5.114;2023-03-14T00:29:07;98857.22;;;11.58;77.70
64886;BME280;51514;52.206;5.114;2023-03-14T00:31:32;98859.34;;;11.56;77.86
64886;BME280;51514;52.206;5.114;2023-03-14T00:33:58;98853.47;;;11.59;77.50
64886;BME280;51514;52.206;5.114;2023-03-14T00:36:24;98847.88;;;11.60;77.54
64886;BME280;51514;52.206;5.114;2023-03-14T00:38:50;98850.78;;;11.59;77.47
64886;BME280;51514;52.206;5.114;2023-03-14T00:41:19;98853.88;;;11.62;77.79
64886;BME280;51514;52.206;5.114;2023-03-14T00:43:44;98852.03;;;11.63;78.08
64886;BME280;51514;52.206;5.114;2023-03-14T00:46:11;98848.28;;;11.57;78.26
64886;BME280;51514;52.206;5.114;2023-03-14T00:48:36;98861.41;;;11.54;78.37
64886;BME280;51514;52.206;5.114;2023-03-14T00:51:03;98860.19;;;11.43;78.20
64886;BME280;51514;52.206;5.114;2023-03-14T00:53:28;98874.72;;;11.42;78.35
64886;BME280;51514;52.206;5.114;2023-03-14T00:55:54;98873.91;;;11.42;78.92
64886;BME280;51514;52.206;5.114;2023-03-14T00:58:19;98874.94;;;11.41;78.53
64886;BME280;51514;52.206;5.114;2023-03-14T01:00:45;98875.56;;;11.36;79.58
64886;BME280;51514;52.206;5.114;2023-03-14T01:03:12;98871.84;;;11.30;81.32
64886;BME280;51514;52.206;5.114;2023-03-14T01:05:38;98878.13;;;11.24;81.17
64886;BME280;51514;52.206;5.114;2023-03-14T01:08:04;98880.59;;;11.19;82.05
64886;BME280;51514;52.206;5.114;2023-03-14T01:10:29;98873.97;;;11.15;82.92
64886;BME280;51514;52.206;5.114;2023-03-14T01:12:55;98878.34;;;11.10;83.75
64886;BME280;51514;52.206;5.114;2023-03-14T01:15:20;98872.53;;;11.06;83.66
64886;BME280;51514;52.206;5.114;2023-03-14T01:17:46;98868.16;;;11.05;84.08
64886;BME280;51514;52.206;5.114;2023-03-14T01:20:13;98863.81;;;11.04;84.74
64886;BME280;51514;52.206;5.114;2023-03-14T01:22:40;98863.22;;;11.02;84.78
64886;BME280;51514;52.206;5.114;2023-03-14T01:25:08;98868.19;;;10.98;86.00
64886;BME280;51514;52.206;5.114;2023-03-14T01:27:34;98872.16;;;10.89;88.75
64886;BME280;51514;52.206;5.114;2023-03-14T01:29:59;98873.16;;;10.82;90.83
64886;BME280;51514;52.206;5.114;2023-03-14T01:32:24;98886.88;;;10.74;92.66
64886;BME280;51514;52.206;5.114;2023-03-14T01:34:50;98879.63;;;10.68;94.26
64886;BME280;51514;52.206;5.114;2023-03-14T01:37:16;98883.56;;;10.58;94.31
64886;BME280;51514;52.206;5.114;2023-03-14T01:39:42;98882.31;;;10.54;95.01
64886;BME280;51514;52.206;5.114;2023-03-14T01:42:07;98887.06;;;10.52;94.95
64886;BME280;51514;52.206;5.114;2023-03-14T01:44:55;98876.72;;;10.56;94.37
64886;BME280;51514;52.206;5.114;2023-03-14T01:47:21;98872.38;;;10.55;93.48
64886;BME280;51514;52.206;5.114;2023-03-14T01:49:50;98870.91;;;10.52;93.63
64886;BME280;51514;52.206;5.114;2023-03-14T01:52:19;98871.53;;;10.54;93.05
64886;BME280;51514;52.206;5.114;2023-03-14T01:54:53;98868.00;;;10.54;93.13
64886;BME280;51514;52.206;5.114;2023-03-14T01:57:25;98868.00;;;10.54;92.70
64886;BME280;51514;52.206;5.114;2023-03-14T01:59:57;98859.09;;;10.53;92.24
64886;BME280;51514;52.206;5.114;2023-03-14T02:02:24;98859.94;;;10.54;92.72
64886;BME280;51514;52.206;5.114;2023-03-14T02:04:52;98859.72;;;10.55;92.58
64886;BME280;51514;52.206;5.114;2023-03-14T02:09:57;98845.00;;;10.58;91.66
64886;BME280;51514;52.206;5.114;2023-03-14T02:12:24;98838.78;;;10.57;91.73
64886;BME280;51514;52.206;5.114;2023-03-14T02:14:49;98845.59;;;10.60;91.42
64886;BME280;51514;52.206;5.114;2023-03-14T02:17:17;98834.63;;;10.61;91.14
64886;BME280;51514;52.206;5.114;2023-03-14T02:22:15;98829.84;;;10.64;90.77
64886;BME280;51514;52.206;5.114;2023-03-14T02:24:57;98823.84;;;10.61;90.83
64886;BME280;51514;52.206;5.114;2023-03-14T02:27:25;98831.53;;;10.65;90.74
64886;BME280;51514;52.206;5.114;2023-03-14T02:30:00;98823.84;;;10.61;90.66
64886;BME280;51514;52.206;5.114;2023-03-14T02:32:29;98822.19;;;10.60;90.31
64886;BME280;51514;52.206;5.114;2023-03-14T02:34:58;98825.94;;;10.59;90.84
64886;BME280;51514;52.206;5.114;2023-03-14T02:37:33;98830.91;;;10.63;91.29
64886;BME280;51514;52.206;5.114;2023-03-14T02:40:01;98826.97;;;10.58;91.10
64886;BME280;51514;52.206;5.114;2023-03-14T02:42:27;98823.03;;;10.54;91.76
64886;BME280;51514;52.206;5.114;2023-03-14T02:47:33;98818.50;;;10.48;92.00
64886;BME280;51514;52.206;5.114;2023-03-14T02:50:08;98823.88;;;10.48;92.09
64886;BME280;51514;52.206;5.114;2023-03-14T02:52:34;98811.00;;;10.44;92.29
64886;BME280;51514;52.206;5.114;2023-03-14T02:54:59;98810.19;;;10.43;92.47
64886;BME280;51514;52.206;5.114;2023-03-14T02:57:25;98808.72;;;10.41;92.34
64886;BME280;51514;52.206;5.114;2023-03-14T02:59:50;98815.16;;;10.40;92.41
64886;BME280;51514;52.206;5.114;2023-03-14T03:02:15;98815.56;;;10.43;91.99
64886;BME280;51514;52.206;5.114;2023-03-14T03:04:41;98810.38;;;10.42;92.13
64886;BME280;51514;52.206;5.114;2023-03-14T03:07:06;98802.94;;;10.44;91.69
64886;BME280;51514;52.206;5.114;2023-03-14T03:09:32;98799.81;;;10.40;91.85
64886;BME280;51514;52.206;5.114;2023-03-14T03:11:57;98807.69;;;10.42;91.52
64886;BME280;51514;52.206;5.114;2023-03-14T03:14:22;98811.22;;;10.42;92.12
64886;BME280;51514;52.206;5.114;2023-03-14T03:16:48;98806.66;;;10.43;91.45
64886;BME280;51514;52.206;5.114;2023-03-14T03:19:13;98803.53;;;10.39;92.12
64886;BME280;51514;52.206;5.114;2023-03-14T03:21:39;98798.97;;;10.40;92.11
64886;BME280;51514;52.206;5.114;2023-03-14T03:24:05;98799.22;;;10.38;92.13
64886;BME280;51514;52.206;5.114;2023-03-14T03:26:33;98797.75;;;10.42;92.17
64886;BME280;51514;52.206;5.114;2023-03-14T03:28:59;98798.38;;;10.38;92.25
64886;BME280;51514;52.206;5.114;2023-03-14T03:31:24;98796.53;;;10.38;92.33
64886;BME280;51514;52.206;5.114;2023-03-14T03:33:50;98802.50;;;10.40;92.47
64886;BME280;51514;52.206;5.114;2023-03-14T03:36:15;98797.75;;;10.36;92.40
64886;BME280;51514;52.206;5.114;2023-03-14T03:38:45;98798.16;;;10.39;92.36
64886;BME280;51514;52.206;5.114;2023-03-14T03:41:10;98801.06;;;10.44;91.97
64886;BME280;51514;52.206;5.114;2023-03-14T03:43:36;98791.94;;;10.45;91.88
64886;BME280;51514;52.206;5.114;2023-03-14T03:46:05;98791.94;;;10.45;91.76
64886;BME280;51514;52.206;5.114;2023-03-14T03:48:31;98786.75;;;10.50;91.72
64886;BME280;51514;52.206;5.114;2023-03-14T03:50:56;98792.75;;;10.52;91.53
64886;BME280;51514;52.206;5.114;2023-03-14T03:53:21;98797.31;;;10.52;91.43
64886;BME280;51514;52.206;5.114;2023-03-14T03:55:47;98791.09;;;10.51;91.30
64886;BME280;51514;52.206;5.114;2023-03-14T03:58:12;98799.59;;;10.55;91.03
64886;BME280;51514;52.206;5.114;2023-03-14T04:00:37;98792.34;;;10.55;90.99
64886;BME280;51514;52.206;5.114;2023-03-14T04:03:04;98794.00;;;10.56;90.87
64886;BME280;51514;52.206;5.114;2023-03-14T04:05:29;98785.53;;;10.59;90.57
64886;BME280;51514;52.206;5.114;2023-03-14T04:07:55;98789.84;;;10.60;90.63
64886;BME280;51514;52.206;5.114;2023-03-14T04:10:20;98775.78;;;10.58;90.63
64886;BME280;51514;52.206;5.114;2023-03-14T04:12:45;98791.13;;;10.58;90.59
64886;BME280;51514;52.206;5.114;2023-03-14T04:15:11;98778.25;;;10.53;91.30
64886;BME280;51514;52.206;5.114;2023-03-14T04:17:36;98789.66;;;10.55;91.52
64886;BME280;51514;52.206;5.114;2023-03-14T04:20:02;98787.38;;;10.52;90.99
64886;BME280;51514;52.206;5.114;2023-03-14T04:22:28;98785.72;;;10.51;91.57
64886;BME280;51514;52.206;5.114;2023-03-14T04:24:53;98795.69;;;10.57;91.37
64886;BME280;51514;52.206;5.114;2023-03-14T04:27:18;98786.34;;;10.53;91.18
64886;BME280;51514;52.206;5.114;2023-03-14T04:29:44;98793.59;;;10.53;91.00
64886;BME280;51514;52.206;5.114;2023-03-14T04:32:09;98781.97;;;10.52;91.12
64886;BME280;51514;52.206;5.114;2023-03-14T04:34:34;98786.53;;;10.52;90.87
64886;BME280;51514;52.206;5.114;2023-03-14T04:37:00;98781.56;;;10.55;90.89
64886;BME280;51514;52.206;5.114;2023-03-14T04:39:25;98783.44;;;10.55;91.31
64886;BME280;51514;52.206;5.114;2023-03-14T04:41:51;98779.28;;;10.52;91.92
64886;BME280;51514;52.206;5.114;2023-03-14T04:44:16;98778.25;;;10.53;91.61
64886;BME280;51514;52.206;5.114;2023-03-14T04:46:41;98774.75;;;10.46;92.98
64886;BME280;51514;52.206;5.114;2023-03-14T04:49:07;98786.75;;;10.50;93.93
64886;BME280;51514;52.206;5.114;2023-03-14T04:51:32;98791.94;;;10.39;96.45
64886;BME280;51514;52.206;5.114;2023-03-14T04:53:57;98783.66;;;10.34;97.27
64886;BME280;51514;52.206;5.114;2023-03-14T04:56:23;98785.31;;;10.28;99.07
64886;BME280;51514;52.206;5.114;2023-03-14T04:58:48;98787.19;;;10.21;100.00
64886;BME280;51514;52.206;5.114;2023-03-14T05:01:13;98788.84;;;10.22;100.00
64886;BME280;51514;52.206;5.114;2023-03-14T05:03:39;98786.56;;;10.19;100.00
64886;BME280;51514;52.206;5.114;2023-03-14T05:06:05;98786.97;;;10.16;100.00
64886;BME280;51514;52.206;5.114;2023-03-14T05:08:30;98792.97;;;10.18;100.00
64886;BME280;51514;52.206;5.114;2023-03-14T05:10:57;98786.13;;;10.15;100.00
64886;BME280;51514;52.206;5.114;2023-03-14T05:13:23;98789.03;;;10.14;100.00
64886;BME280;51514;52.206;5.114;2023-03-14T05:15:48;98798.13;;;10.13;100.00
64886;BME280;51514;52.206;5.114;2023-03-14T05:18:15;98785.69;;;10.12;100.00
64886;BME280;51514;52.206;5.114;2023-03-14T05:20:40;98783.22;;;10.10;100.00
64886;BME280;51514;52.206;5.114;2023-03-14T05:23:08;98778.66;;;10.11;100.00
64886;BME280;51514;52.206;5.114;2023-03-14T05:25:33;98773.66;;;10.08;100.00
64886;BME280;51514;52.206;5.114;2023-03-14T05:27:58;98764.56;;;10.09;100.00
64886;BME280;51514;52.206;5.114;2023-03-14T05:30:24;98760.84;;;10.03;100.00
64886;BME280;51514;52.206;5.114;2023-03-14T05:32:49;98761.69;;;10.04;100.00
64886;BME280;51514;52.206;5.114;2023-03-14T05:35:14;98767.06;;;10.04;100.00
64886;BME280;51514;52.206;5.114;2023-03-14T05:37:40;98761.03;;;10.02;100.00
64886;BME280;51514;52.206;5.114;2023-03-14T05:40:06;98756.28;;;9.97;100.00
64886;BME280;51514;52.206;5.114;2023-03-14T05:42:32;98756.69;;;10.01;100.00
64886;BME280;51514;52.206;5.114;2023-03-14T05:44:58;98764.78;;;10.01;100.00
64886;BME280;51514;52.206;5.114;2023-03-14T05:47:24;98766.84;;;9.99;100.00
64886;BME280;51514;52.206;5.114;2023-03-14T05:49:50;98774.91;;;9.99;100.00
64886;BME280;51514;52.206;5.114;2023-03-14T05:52:15;98778.63;;;9.98;100.00
64886;BME280;51514;52.206;5.114;2023-03-14T05:54:40;98780.94;;;10.01;100.00
64886;BME280;51514;52.206;5.114;2023-03-14T05:57:06;98780.94;;;10.01;100.00
64886;BME280;51514;52.206;5.114;2023-03-14T05:59:32;98786.09;;;10.02;100.00
64886;BME280;51514;52.206;5.114;2023-03-14T06:01:57;98781.97;;;10.00;100.00
64886;BME280;51514;52.206;5.114;2023-03-14T06:04:22;98803.91;;;9.97;100.00
64886;BME280;51514;52.206;5.114;2023-03-14T06:06:48;98808.06;;;9.93;100.00
64886;BME280;51514;52.206;5.114;2023-03-14T06:09:13;98810.94;;;9.98;100.00
64886;BME280;51514;52.206;5.114;2023-03-14T06:11:38;98815.69;;;9.96;100.00
64886;BME280;51514;52.206;5.114;2023-03-14T06:14:04;98834.75;;;9.87;100.00
64886;BME280;51514;52.206;5.114;2023-03-14T06:16:29;98855.03;;;9.90;100.00
64886;BME280;51514;52.206;5.114;2023-03-14T06:18:54;98863.75;;;9.92;100.00
64886;BME280;51514;52.206;5.114;2023-03-14T06:21:20;98855.69;;;9.92;100.00
64886;BME280;51514;52.206;5.114;2023-03-14T06:23:45;98866.84;;;9.96;100.00
64886;BME280;51514;52.206;5.114;2023-03-14T06:26:11;98871.84;;;9.99;99.63
64886;BME280;51514;52.206;5.114;2023-03-14T06:28:39;98889.66;;;10.00;98.96
64886;BME280;51514;52.206;5.114;2023-03-14T06:31:05;98894.19;;;9.93;97.83
64886;BME280;51514;52.206;5.114;2023-03-14T06:33:31;98902.91;;;9.95;97.61
64886;BME280;51514;52.206;5.114;2023-03-14T06:35:56;98912.22;;;9.92;97.73
64886;BME280;51514;52.206;5.114;2023-03-14T06:38:21;98914.91;;;9.92;97.55
64886;BME280;51514;52.206;5.114;2023-03-14T06:40:47;98922.97;;;9.92;97.18
64886;BME280;51514;52.206;5.114;2023-03-14T06:43:12;98924.19;;;9.89;96.82
64886;BME280;51514;52.206;5.114;2023-03-14T06:45:37;98929.34;;;9.84;97.15
64886;BME280;51514;52.206;5.114;2023-03-14T06:48:03;98936.63;;;9.84;97.28
64886;BME280;51514;52.206;5.114;2023-03-14T06:50:28;98947.16;;;9.85;97.16
64886;BME280;51514;52.206;5.114;2023-03-14T06:52:54;98956.50;;;9.83;96.69
64886;BME280;51514;52.206;5.114;2023-03-14T06:55:19;98957.91;;;9.85;96.89
64886;BME280;51514;52.206;5.114;2023-03-14T06:57:45;98967.03;;;9.84;96.77
64886;BME280;51514;52.206;5.114;2023-03-14T07:00:12;98968.03;;;9.77;96.30
64886;BME280;51514;52.206;5.114;2023-03-14T07:02:39;98980.84;;;9.75;96.00
64886;BME280;51514;52.206;5.114;2023-03-14T07:05:05;98997.63;;;9.70;95.26
64886;BME280;51514;52.206;5.114;2023-03-14T07:07:30;99002.75;;;9.65;94.62
64886;BME280;51514;52.206;5.114;2023-03-14T07:09:56;99006.81;;;9.55;93.58
64886;BME280;51514;52.206;5.114;2023-03-14T07:12:21;99014.25;;;9.52;93.71
64886;BME280;51514;52.206;5.114;2023-03-14T07:14:46;99024.41;;;9.50;93.66
64886;BME280;51514;52.206;5.114;2023-03-14T07:17:12;99028.50;;;9.46;93.80
64886;BME280;51514;52.206;5.114;2023-03-14T07:19:37;99048.34;;;9.45;93.68
64886;BME280;51514;52.206;5.114;2023-03-14T07:22:03;99065.53;;;9.44;93.52
64886;BME280;51514;52.206;5.114;2023-03-14T07:24:29;99072.91;;;9.36;92.93
64886;BME280;51514;52.206;5.114;2023-03-14T07:26:54;99082.56;;;9.30;93.41
64886;BME280;51514;52.206;5.114;2023-03-14T07:29:19;99098.66;;;9.24;92.64
64886;BME280;51514;52.206;5.114;2023-03-14T07:31:45;99121.56;;;9.20;91.95
64886;BME280;51514;52.206;5.114;2023-03-14T07:34:10;99117.16;;;9.12;91.43
64886;BME280;51514;52.206;5.114;2023-03-14T07:36:35;99121.06;;;9.09;91.64
64886;BME280;51514;52.206;5.114;2023-03-14T07:39:01;99137.78;;;9.05;91.26
64886;BME280;51514;52.206;5.114;2023-03-14T07:41:26;99144.19;;;9.04;92.08
64886;BME280;51514;52.206;5.114;2023-03-14T07:43:52;99150.84;;;9.08;91.51
64886;BME280;51514;52.206;5.114;2023-03-14T07:46:17;99160.13;;;9.05;91.35
64886;BME280;51514;52.206;5.114;2023-03-14T07:48:43;99166.50;;;9.04;91.74
64886;BME280;51514;52.206;5.114;2023-03-14T07:51:08;99203.44;;;8.96;91.72
64886;BME280;51514;52.206;5.114;2023-03-14T07:53:34;99211.53;;;8.66;90.68
64886;BME280;51514;52.206;5.114;2023-03-14T07:55:59;99225.19;;;8.27;90.83
64886;BME280;51514;52.206;5.114;2023-03-14T07:58:24;99243.44;;;8.17;91.57
64886;BME280;51514;52.206;5.114;2023-03-14T08:00:51;99259.56;;;7.94;92.18
64886;BME280;51514;52.206;5.114;2023-03-14T08:03:17;99265.91;;;7.79;92.31
64886;BME280;51514;52.206;5.114;2023-03-14T08:05:43;99286.13;;;7.66;92.75
64886;BME280;51514;52.206;5.114;2023-03-14T08:08:08;99292.53;;;7.57;92.68
64886;BME280;51514;52.206;5.114;2023-03-14T08:10:34;99304.38;;;7.40;92.18
64886;BME280;51514;52.206;5.114;2023-03-14T08:13:00;99313.47;;;7.31;93.03
64886;BME280;51514;52.206;5.114;2023-03-14T08:15:26;99332.53;;;7.36;93.32
64886;BME280;51514;52.206;5.114;2023-03-14T08:17:53;99344.47;;;7.33;93.79
64886;BME280;51514;52.206;5.114;2023-03-14T08:20:20;99348.63;;;7.36;92.31
64886;BME280;51514;52.206;5.114;2023-03-14T08:22:46;99363.59;;;7.30;93.00
64886;BME280;51514;52.206;5.114;2023-03-14T08:25:11;99372.69;;;7.21;92.93
64886;BME280;51514;52.206;5.114;2023-03-14T08:27:37;99375.19;;;7.15;91.83
64886;BME280;51514;52.206;5.114;2023-03-14T08:30:05;99380.56;;;7.15;90.71
64886;BME280;51514;52.206;5.114;2023-03-14T08:32:30;99400.78;;;7.25;91.87
64886;BME280;51514;52.206;5.114;2023-03-14T08:34:56;99413.34;;;7.33;91.25
64886;BME280;51514;52.206;5.114;2023-03-14T08:37:22;99421.72;;;7.30;90.42
64886;BME280;51514;52.206;5.114;2023-03-14T08:39:49;99433.97;;;7.32;91.69
64886;BME280;51514;52.206;5.114;2023-03-14T08:42:14;99443.16;;;7.38;90.84
64886;BME280;51514;52.206;5.114;2023-03-14T08:44:40;99452.50;;;7.50;91.07
64886;BME280;51514;52.206;5.114;2023-03-14T08:47:05;99470.94;;;7.53;90.20
64886;BME280;51514;52.206;5.114;2023-03-14T08:49:30;99480.28;;;7.57;89.72
64886;BME280;51514;52.206;5.114;2023-03-14T08:51:56;99474.91;;;7.65;90.16
64886;BME280;51514;52.206;5.114;2023-03-14T08:54:21;99488.31;;;7.65;87.88
64886;BME280;51514;52.206;5.114;2023-03-14T08:56:46;99495.66;;;7.72;87.86
64886;BME280;51514;52.206;5.114;2023-03-14T08:59:12;99513.78;;;7.78;87.75
64886;BME280;51514;52.206;5.114;2023-03-14T09:01:37;99511.91;;;7.78;87.61
64886;BME280;51514;52.206;5.114;2023-03-14T09:04:02;99517.13;;;7.72;86.41
64886;BME280;51514;52.206;5.114;2023-03-14T09:06:28;99526.56;;;7.67;86.60
64886;BME280;51514;52.206;5.114;2023-03-14T09:08:53;99537.44;;;7.66;86.11
64886;BME280;51514;52.206;5.114;2023-03-14T09:11:18;99551.69;;;7.66;86.89
64886;BME280;51514;52.206;5.114;2023-03-14T09:13:44;99554.19;;;7.68;87.42
64886;BME280;51514;52.206;5.114;2023-03-14T09:16:09;99566.94;;;7.74;87.39
64886;BME280;51514;52.206;5.114;2023-03-14T09:18:35;99576.16;;;7.72;86.78
64886;BME280;51514;52.206;5.114;2023-03-14T09:21:00;99586.22;;;7.69;86.81
64886;BME280;51514;52.206;5.114;2023-03-14T09:23:27;99591.25;;;7.64;87.12
64886;BME280;51514;52.206;5.114;2023-03-14T09:25:56;99602.00;;;7.64;88.02
64886;BME280;51514;52.206;5.114;2023-03-14T09:28:22;99623.78;;;7.61;88.37
64886;BME280;51514;52.206;5.114;2023-03-14T09:30:47;99628.19;;;7.46;86.49
64886;BME280;51514;52.206;5.114;2023-03-14T09:33:12;99629.16;;;7.37;86.67
64886;BME280;51514;52.206;5.114;2023-03-14T09:35:38;99641.41;;;7.40;87.48
64886;BME280;51514;52.206;5.114;2023-03-14T09:38:03;99650.28;;;7.40;88.28
64886;BME280;51514;52.206;5.114;2023-03-14T09:40:33;99657.31;;;7.41;87.86
64886;BME280;51514;52.206;5.114;2023-03-14T09:42:59;99666.72;;;7.45;88.29
64886;BME280;51514;52.206;5.114;2023-03-14T09:45:28;99675.75;;;7.52;88.22
64886;BME280;51514;52.206;5.114;2023-03-14T09:47:55;99683.97;;;7.59;89.65
64886;BME280;51514;52.206;5.114;2023-03-14T09:50:21;99702.91;;;7.49;86.85
64886;BME280;51514;52.206;5.114;2023-03-14T09:52:51;99714.00;;;7.46;87.28
64886;BME280;51514;52.206;5.114;2023-03-14T09:55:19;99725.38;;;7.32;87.46
64886;BME280;51514;52.206;5.114;2023-03-14T09:57:47;99732.56;;;7.31;88.94
64886;BME280;51514;52.206;5.114;2023-03-14T10:00:16;99735.09;;;7.33;88.96
64886;BME280;51514;52.206;5.114;2023-03-14T10:02:47;99738.78;;;7.32;88.67
64886;BME280;51514;52.206;5.114;2023-03-14T10:05:20;99752.88;;;7.42;89.80
64886;BME280;51514;52.206;5.114;2023-03-14T10:07:46;99759.75;;;7.45;88.71
64886;BME280;51514;52.206;5.114;2023-03-14T10:10:18;99769.97;;;7.41;87.88
64886;BME280;51514;52.206;5.114;2023-03-14T10:12:46;99776.31;;;7.48;86.84
64886;BME280;51514;52.206;5.114;2023-03-14T10:15:14;99783.88;;;7.53;86.75
64886;BME280;51514;52.206;5.114;2023-03-14T10:17:52;99790.25;;;7.60;86.61
64886;BME280;51514;52.206;5.114;2023-03-14T10:20:32;99793.13;;;7.75;85.40
64886;BME280;51514;52.206;5.114;2023-03-14T10:23:00;99805.22;;;7.87;83.40
64886;BME280;51514;52.206;5.114;2023-03-14T10:25:28;99809.44;;;7.89;81.10
64886;BME280;51514;52.206;5.114;2023-03-14T10:27:54;99815.97;;;7.95;80.30
64886;BME280;51514;52.206;5.114;2023-03-14T10:30:30;99844.47;;;7.96;80.03
64886;BME280;51514;52.206;5.114;2023-03-14T10:33:26;99853.22;;;7.98;78.61
64886;BME280;51514;52.206;5.114;2023-03-14T10:36:03;99871.97;;;7.74;75.15
64886;BME280;51514;52.206;5.114;2023-03-14T10:38:33;99881.31;;;7.69;79.02
64886;BME280;51514;52.206;5.114;2023-03-14T10:40:59;99905.47;;;7.61;80.42
64886;BME280;51514;52.206;5.114;2023-03-14T10:43:28;99902.59;;;7.55;81.74
64886;BME280;51514;52.206;5.114;2023-03-14T10:45:57;99911.97;;;7.51;81.16
64886;BME280;51514;52.206;5.114;2023-03-14T10:48:34;99921.88;;;7.58;81.12
64886;BME280;51514;52.206;5.114;2023-03-14T10:53:40;99925.44;;;7.67;78.83
64886;BME280;51514;52.206;5.114;2023-03-14T10:56:06;99937.00;;;7.67;76.25
64886;BME280;51514;52.206;5.114;2023-03-14T10:58:37;99947.78;;;7.84;72.11
64886;BME280;51514;52.206;5.114;2023-03-14T11:03:36;99972.09;;;8.49;72.17
64886;BME280;51514;52.206;5.114;2023-03-14T11:06:11;99975.97;;;8.78;70.62
64886;BME280;51514;52.206;5.114;2023-03-14T11:08:46;99988.22;;;9.05;68.16
64886;BME280;51514;52.206;5.114;2023-03-14T11:11:23;99997.06;;;9.30;68.85
64886;BME280;51514;52.206;5.114;2023-03-14T11:19:23;100027.88;;;9.03;63.00
64886;BME280;51514;52.206;5.114;2023-03-14T11:24:39;100044.84;;;9.36;60.31
64886;BME280;51514;52.206;5.114;2023-03-14T11:27:18;100056.75;;;9.34;58.53
64886;BME280;51514;52.206;5.114;2023-03-14T11:33:12;100074.59;;;9.51;57.58
64886;BME280;51514;52.206;5.114;2023-03-14T11:35:55;100086.84;;;9.45;54.20
64886;BME280;51514;52.206;5.114;2023-03-14T11:39:07;100092.38;;;9.68;55.09
64886;BME280;51514;52.206;5.114;2023-03-14T11:41:16;100097.06;;;9.82;52.36
64886;BME280;51514;52.206;5.114;2023-03-14T11:43:54;100106.97;;;9.74;49.53
64886;BME280;51514;52.206;5.114;2023-03-14T11:46:42;100125.69;;;9.67;50.59
64886;BME280;51514;52.206;5.114;2023-03-14T11:49:32;100117.94;;;9.56;50.54
64886;BME280;51514;52.206;5.114;2023-03-14T11:52:21;100117.63;;;9.51;51.39
64886;BME280;51514;52.206;5.114;2023-03-14T11:54:56;100120.34;;;9.51;50.25
64886;BME280;51514;52.206;5.114;2023-03-14T11:57:23;100139.66;;;9.55;50.83
64886;BME280;51514;52.206;5.114;2023-03-14T12:00:12;100144.19;;;9.46;50.68
64886;BME280;51514;52.206;5.114;2023-03-14T12:13:14;100170.63;;;9.50;51.98
64886;BME280;51514;52.206;5.114;2023-03-14T12:15:46;100181.38;;;9.67;51.43
64886;BME280;51514;52.206;5.114;2023-03-14T12:18:20;100192.13;;;9.75;50.71
64886;BME280;51514;52.206;5.114;2023-03-14T12:20:55;100180.66;;;9.89;47.51
64886;BME280;51514;52.206;5.114;2023-03-14T12:23:23;100191.59;;;10.04;47.73
64886;BME280;51514;52.206;5.114;2023-03-14T12:29:23;100202.00;;;10.23;48.27
64886;BME280;51514;52.206;5.114;2023-03-14T12:42:08;100227.94;;;10.00;45.46
64886;BME280;51514;52.206;5.114;2023-03-14T12:44:40;100224.59;;;9.81;45.43
64886;BME280;51514;52.206;5.114;2023-03-14T12:49:45;100251.53;;;9.73;46.79
64886;BME280;51514;52.206;5.114;2023-03-14T12:52:22;100262.78;;;9.85;46.87
64886;BME280;51514;52.206;5.114;2023-03-14T12:57:45;100267.69;;;9.89;47.33
64886;BME280;51514;52.206;5.114;2023-03-14T13:00:29;100272.56;;;9.70;46.03
64886;BME280;51514;52.206;5.114;2023-03-14T13:03:00;100285.13;;;9.53;46.33
64886;BME280;51514;52.206;5.114;2023-03-14T13:05:36;100295.06;;;9.52;45.84
64886;BME280;51514;52.206;5.114;2023-03-14T13:11:01;100306.13;;;9.41;46.07
64886;BME280;51514;52.206;5.114;2023-03-14T13:13:28;100312.66;;;9.31;46.40
64886;BME280;51514;52.206;5.114;2023-03-14T13:15:55;100313.56;;;9.39;47.62
64886;BME280;51514;52.206;5.114;2023-03-14T13:20:54;100328.66;;;9.32;46.21
64886;BME280;51514;52.206;5.114;2023-03-14T13:23:26;100338.38;;;9.17;47.50
64886;BME280;51514;52.206;5.114;2023-03-14T13:25:54;100345.91;;;9.13;47.55
64886;BME280;51514;52.206;5.114;2023-03-14T13:28:20;100342.06;;;9.24;48.45
64886;BME280;51514;52.206;5.114;2023-03-14T13:30:47;100350.16;;;9.24;48.09
64886;BME280;51514;52.206;5.114;2023-03-14T13:33:19;100349.16;;;9.33;49.11
64886;BME280;51514;52.206;5.114;2023-03-14T13:35:47;100360.09;;;9.32;49.50
64886;BME280;51514;52.206;5.114;2023-03-14T13:38:17;100366.97;;;9.26;48.51
64886;BME280;51514;52.206;5.114;2023-03-14T13:40:44;100376.03;;;9.25;49.60
64886;BME280;51514;52.206;5.114;2023-03-14T13:43:14;100379.22;;;9.21;49.35
64886;BME280;51514;52.206;5.114;2023-03-14T13:45:54;100387.94;;;9.14;49.06
64886;BME280;51514;52.206;5.114;2023-03-14T13:48:21;100388.28;;;9.20;49.83
64886;BME280;51514;52.206;5.114;2023-03-14T13:50:53;100393.03;;;9.26;49.44
64886;BME280;51514;52.206;5.114;2023-03-14T13:53:19;100400.13;;;9.35;49.96
64886;BME280;51514;52.206;5.114;2023-03-14T13:55:45;100400.13;;;9.35;49.26
64886;BME280;51514;52.206;5.114;2023-03-14T13:58:25;100408.47;;;9.24;45.62
64886;BME280;51514;52.206;5.114;2023-03-14T14:00:59;100423.94;;;9.22;46.77
64886;BME280;51514;52.206;5.114;2023-03-14T14:03:25;100432.41;;;9.35;46.55
64886;BME280;51514;52.206;5.114;2023-03-14T14:05:51;100436.78;;;9.36;45.54